KIZG 280254Z AUTO 00000KT 10SM BKN049 OVC060 10/06 A3022 RMK AO2 SLP236 T01000056 58002